sensor_id;sensor_type;location;lat;lon;timestamp;P1;durP1;ratioP1;P2;durP2;ratioP2
41799;SDS011;27468;47.460;19.034;2023-06-24T00:00:56;7.00;;;4.53;;
41799;SDS011;27468;47.460;19.034;2023-06-24T00:03:21;8.05;;;4.32;;
41799;SDS011;27468;47.460;19.034;2023-06-24T00:05:47;6.60;;;4.70;;
41799;SDS011;27468;47.460;19.034;2023-06-24T00:08:17;7.85;;;4.80;;
41799;SDS011;27468;47.460;19.034;2023-06-24T00:10:44;6.60;;;4.22;;
41799;SDS011;27468;47.460;19.034;2023-06-24T00:13:11;7.18;;;4.78;;
41799;SDS011;27468;47.460;19.034;2023-06-24T00:15:38;7.55;;;4.63;;
41799;SDS011;27468;47.460;19.034;2023-06-24T00:18:07;7.05;;;4.65;;
41799;SDS011;27468;47.460;19.034;2023-06-24T00:20:36;6.40;;;4.43;;
41799;SDS011;27468;47.460;19.034;2023-06-24T00:23:02;5.95;;;4.18;;
41799;SDS011;27468;47.460;19.034;2023-06-24T00:25:28;6.40;;;3.97;;
41799;SDS011;27468;47.460;19.034;2023-06-24T00:27:54;7.05;;;4.45;;
41799;SDS011;27468;47.460;19.034;2023-06-24T00:30:19;6.50;;;4.53;;
41799;SDS011;27468;47.460;19.034;2023-06-24T00:32:45;6.38;;;4.18;;
41799;SDS011;27468;47.460;19.034;2023-06-24T00:35:10;7.32;;;4.35;;
41799;SDS011;27468;47.460;19.034;2023-06-24T00:37:37;6.28;;;4.53;;
41799;SDS011;27468;47.460;19.034;2023-06-24T00:40:03;4.30;;;3.00;;
41799;SDS011;27468;47.460;19.034;2023-06-24T00:42:30;5.25;;;2.60;;
41799;SDS011;27468;47.460;19.034;2023-06-24T00:44:56;3.63;;;2.22;;
41799;SDS011;27468;47.460;19.034;2023-06-24T00:47:21;2.97;;;2.33;;
41799;SDS011;27468;47.460;19.034;2023-06-24T00:49:47;3.10;;;2.50;;
41799;SDS011;27468;47.460;19.034;2023-06-24T00:52:13;2.90;;;2.30;;
41799;SDS011;27468;47.460;19.034;2023-06-24T00:54:44;3.78;;;2.80;;
41799;SDS011;27468;47.460;19.034;2023-06-24T00:57:09;4.20;;;2.85;;
41799;SDS011;27468;47.460;19.034;2023-06-24T00:59:35;4.38;;;2.72;;
41799;SDS011;27468;47.460;19.034;2023-06-24T01:02:03;4.65;;;2.70;;
41799;SDS011;27468;47.460;19.034;2023-06-24T01:04:29;4.70;;;2.85;;
41799;SDS011;27468;47.460;19.034;2023-06-24T01:06:56;3.63;;;2.08;;
41799;SDS011;27468;47.460;19.034;2023-06-24T01:09:22;3.08;;;2.05;;
41799;SDS011;27468;47.460;19.034;2023-06-24T01:11:49;2.83;;;1.95;;
41799;SDS011;27468;47.460;19.034;2023-06-24T01:14:15;3.58;;;2.30;;
41799;SDS011;27468;47.460;19.034;2023-06-24T01:17:09;3.08;;;2.05;;
41799;SDS011;27468;47.460;19.034;2023-06-24T01:22:48;4.10;;;1.95;;
41799;SDS011;27468;47.460;19.034;2023-06-24T01:33:04;3.78;;;1.85;;
41799;SDS011;27468;47.460;19.034;2023-06-24T01:35:34;2.97;;;2.00;;
41799;SDS011;27468;47.460;19.034;2023-06-24T01:38:03;2.88;;;2.17;;
41799;SDS011;27468;47.460;19.034;2023-06-24T01:40:36;2.95;;;2.10;;
41799;SDS011;27468;47.460;19.034;2023-06-24T01:43:05;3.47;;;1.92;;
41799;SDS011;27468;47.460;19.034;2023-06-24T01:45:35;2.75;;;1.85;;
41799;SDS011;27468;47.460;19.034;2023-06-24T01:48:07;5.10;;;2.10;;
41799;SDS011;27468;47.460;19.034;2023-06-24T01:50:38;2.72;;;1.80;;
41799;SDS011;27468;47.460;19.034;2023-06-24T01:53:07;2.63;;;1.60;;
41799;SDS011;27468;47.460;19.034;2023-06-24T01:55:34;2.78;;;1.77;;
41799;SDS011;27468;47.460;19.034;2023-06-24T01:58:03;2.05;;;1.55;;
41799;SDS011;27468;47.460;19.034;2023-06-24T02:00:32;3.22;;;1.65;;
41799;SDS011;27468;47.460;19.034;2023-06-24T02:02:59;3.13;;;1.80;;
41799;SDS011;27468;47.460;19.034;2023-06-24T02:05:26;3.78;;;1.77;;
41799;SDS011;27468;47.460;19.034;2023-06-24T02:07:53;2.85;;;1.80;;
41799;SDS011;27468;47.460;19.034;2023-06-24T02:10:21;2.70;;;1.73;;
41799;SDS011;27468;47.460;19.034;2023-06-24T02:12:49;2.40;;;1.60;;
41799;SDS011;27468;47.460;19.034;2023-06-24T02:15:17;3.72;;;1.95;;
41799;SDS011;27468;47.460;19.034;2023-06-24T02:17:45;2.58;;;1.45;;
41799;SDS011;27468;47.460;19.034;2023-06-24T02:20:13;2.47;;;2.08;;
41799;SDS011;27468;47.460;19.034;2023-06-24T02:22:41;3.10;;;2.13;;
41799;SDS011;27468;47.460;19.034;2023-06-24T02:25:09;2.08;;;1.40;;
41799;SDS011;27468;47.460;19.034;2023-06-24T02:27:35;2.88;;;1.42;;
41799;SDS011;27468;47.460;19.034;2023-06-24T02:30:02;2.40;;;1.52;;
41799;SDS011;27468;47.460;19.034;2023-06-24T02:32:29;3.83;;;2.00;;
41799;SDS011;27468;47.460;19.034;2023-06-24T02:34:56;2.50;;;1.60;;
41799;SDS011;27468;47.460;19.034;2023-06-24T02:37:24;2.90;;;1.75;;
41799;SDS011;27468;47.460;19.034;2023-06-24T02:39:49;2.75;;;1.85;;
41799;SDS011;27468;47.460;19.034;2023-06-24T02:42:15;2.50;;;1.48;;
41799;SDS011;27468;47.460;19.034;2023-06-24T02:44:40;2.08;;;1.30;;
41799;SDS011;27468;47.460;19.034;2023-06-24T02:47:07;1.85;;;1.45;;
41799;SDS011;27468;47.460;19.034;2023-06-24T02:49:36;2.15;;;1.30;;
41799;SDS011;27468;47.460;19.034;2023-06-24T02:52:04;1.52;;;1.30;;
41799;SDS011;27468;47.460;19.034;2023-06-24T02:54:30;2.95;;;1.70;;
41799;SDS011;27468;47.460;19.034;2023-06-24T02:56:55;1.90;;;1.70;;
41799;SDS011;27468;47.460;19.034;2023-06-24T02:59:22;2.60;;;1.45;;
41799;SDS011;27468;47.460;19.034;2023-06-24T03:01:49;2.67;;;1.50;;
41799;SDS011;27468;47.460;19.034;2023-06-24T03:04:15;2.78;;;1.60;;
41799;SDS011;27468;47.460;19.034;2023-06-24T03:06:43;2.17;;;1.33;;
41799;SDS011;27468;47.460;19.034;2023-06-24T03:09:10;1.52;;;1.27;;
41799;SDS011;27468;47.460;19.034;2023-06-24T03:11:42;1.30;;;1.13;;
41799;SDS011;27468;47.460;19.034;2023-06-24T03:14:09;2.45;;;1.20;;
41799;SDS011;27468;47.460;19.034;2023-06-24T03:16:35;2.42;;;1.13;;
41799;SDS011;27468;47.460;19.034;2023-06-24T03:19:01;1.77;;;0.98;;
41799;SDS011;27468;47.460;19.034;2023-06-24T03:21:26;2.08;;;1.20;;
41799;SDS011;27468;47.460;19.034;2023-06-24T03:23:53;1.77;;;1.20;;
41799;SDS011;27468;47.460;19.034;2023-06-24T03:26:19;2.42;;;1.50;;
41799;SDS011;27468;47.460;19.034;2023-06-24T03:28:45;1.92;;;1.08;;
41799;SDS011;27468;47.460;19.034;2023-06-24T03:31:10;1.20;;;0.90;;
41799;SDS011;27468;47.460;19.034;2023-06-24T03:33:35;2.00;;;1.08;;
41799;SDS011;27468;47.460;19.034;2023-06-24T03:36:01;1.02;;;0.93;;
41799;SDS011;27468;47.460;19.034;2023-06-24T03:38:26;1.77;;;0.80;;
41799;SDS011;27468;47.460;19.034;2023-06-24T03:40:53;0.82;;;0.80;;
41799;SDS011;27468;47.460;19.034;2023-06-24T03:43:18;1.83;;;1.00;;
41799;SDS011;27468;47.460;19.034;2023-06-24T03:45:44;1.15;;;0.90;;
41799;SDS011;27468;47.460;19.034;2023-06-24T03:48:09;0.98;;;0.75;;
41799;SDS011;27468;47.460;19.034;2023-06-24T03:50:35;0.75;;;0.70;;
41799;SDS011;27468;47.460;19.034;2023-06-24T03:53:00;0.88;;;0.70;;
41799;SDS011;27468;47.460;19.034;2023-06-24T03:55:26;1.30;;;0.70;;
41799;SDS011;27468;47.460;19.034;2023-06-24T03:57:52;2.15;;;0.90;;
41799;SDS011;27468;47.460;19.034;2023-06-24T04:00:17;1.55;;;1.30;;
41799;SDS011;27468;47.460;19.034;2023-06-24T04:02:45;1.17;;;0.85;;
41799;SDS011;27468;47.460;19.034;2023-06-24T04:05:11;1.08;;;0.70;;
41799;SDS011;27468;47.460;19.034;2023-06-24T04:07:37;0.88;;;0.68;;
41799;SDS011;27468;47.460;19.034;2023-06-24T04:10:03;1.45;;;0.90;;
41799;SDS011;27468;47.460;19.034;2023-06-24T04:12:33;0.80;;;0.70;;
41799;SDS011;27468;47.460;19.034;2023-06-24T04:14:59;1.42;;;0.70;;
41799;SDS011;27468;47.460;19.034;2023-06-24T04:17:24;0.70;;;0.60;;
41799;SDS011;27468;47.460;19.034;2023-06-24T04:19:50;0.70;;;0.70;;
41799;SDS011;27468;47.460;19.034;2023-06-24T04:22:15;1.05;;;0.68;;
41799;SDS011;27468;47.460;19.034;2023-06-24T04:24:40;1.23;;;0.75;;
41799;SDS011;27468;47.460;19.034;2023-06-24T04:27:06;2.10;;;0.90;;
41799;SDS011;27468;47.460;19.034;2023-06-24T04:29:33;1.73;;;0.70;;
41799;SDS011;27468;47.460;19.034;2023-06-24T04:31:59;0.80;;;0.63;;
41799;SDS011;27468;47.460;19.034;2023-06-24T04:34:25;0.68;;;0.60;;
41799;SDS011;27468;47.460;19.034;2023-06-24T04:36:50;1.00;;;0.60;;
41799;SDS011;27468;47.460;19.034;2023-06-24T04:39:16;0.70;;;0.60;;
41799;SDS011;27468;47.460;19.034;2023-06-24T04:41:41;0.65;;;0.50;;
41799;SDS011;27468;47.460;19.034;2023-06-24T04:44:06;0.60;;;0.60;;
41799;SDS011;27468;47.460;19.034;2023-06-24T04:46:32;0.52;;;0.52;;
41799;SDS011;27468;47.460;19.034;2023-06-24T04:48:59;0.82;;;0.65;;
41799;SDS011;27468;47.460;19.034;2023-06-24T04:51:24;0.60;;;0.50;;
41799;SDS011;27468;47.460;19.034;2023-06-24T04:53:50;0.95;;;0.60;;
41799;SDS011;27468;47.460;19.034;2023-06-24T04:56:15;1.40;;;0.60;;
41799;SDS011;27468;47.460;19.034;2023-06-24T04:58:41;1.45;;;0.55;;
41799;SDS011;27468;47.460;19.034;2023-06-24T05:01:06;0.63;;;0.57;;
41799;SDS011;27468;47.460;19.034;2023-06-24T05:03:31;1.10;;;0.63;;
41799;SDS011;27468;47.460;19.034;2023-06-24T05:05:57;0.47;;;0.47;;
41799;SDS011;27468;47.460;19.034;2023-06-24T05:08:22;0.70;;;0.70;;
41799;SDS011;27468;47.460;19.034;2023-06-24T05:10:48;0.52;;;0.52;;
41799;SDS011;27468;47.460;19.034;2023-06-24T05:13:13;0.52;;;0.52;;
41799;SDS011;27468;47.460;19.034;2023-06-24T05:15:39;0.63;;;0.50;;
41799;SDS011;27468;47.460;19.034;2023-06-24T05:18:04;0.95;;;0.90;;
41799;SDS011;27468;47.460;19.034;2023-06-24T05:20:29;0.90;;;0.50;;
41799;SDS011;27468;47.460;19.034;2023-06-24T05:22:55;0.82;;;0.60;;
41799;SDS011;27468;47.460;19.034;2023-06-24T05:25:20;1.13;;;0.70;;
41799;SDS011;27468;47.460;19.034;2023-06-24T05:27:46;0.93;;;0.60;;
41799;SDS011;27468;47.460;19.034;2023-06-24T05:30:11;1.65;;;0.52;;
41799;SDS011;27468;47.460;19.034;2023-06-24T05:32:38;0.65;;;0.65;;
41799;SDS011;27468;47.460;19.034;2023-06-24T05:35:03;0.75;;;0.70;;
41799;SDS011;27468;47.460;19.034;2023-06-24T05:37:29;0.60;;;0.60;;
41799;SDS011;27468;47.460;19.034;2023-06-24T05:39:55;0.70;;;0.70;;
41799;SDS011;27468;47.460;19.034;2023-06-24T05:42:21;1.58;;;0.80;;
41799;SDS011;27468;47.460;19.034;2023-06-24T05:44:48;0.70;;;0.60;;
41799;SDS011;27468;47.460;19.034;2023-06-24T05:47:13;0.73;;;0.60;;
41799;SDS011;27468;47.460;19.034;2023-06-24T05:49:39;0.40;;;0.40;;
41799;SDS011;27468;47.460;19.034;2023-06-24T05:52:05;0.50;;;0.50;;
41799;SDS011;27468;47.460;19.034;2023-06-24T05:54:30;0.50;;;0.50;;
41799;SDS011;27468;47.460;19.034;2023-06-24T05:56:56;0.63;;;0.60;;
41799;SDS011;27468;47.460;19.034;2023-06-24T05:59:21;0.40;;;0.40;;
41799;SDS011;27468;47.460;19.034;2023-06-24T06:01:47;0.45;;;0.43;;
41799;SDS011;27468;47.460;19.034;2023-06-24T06:04:12;0.93;;;0.60;;
41799;SDS011;27468;47.460;19.034;2023-06-24T06:06:38;0.80;;;0.65;;
41799;SDS011;27468;47.460;19.034;2023-06-24T06:09:05;0.82;;;0.50;;
41799;SDS011;27468;47.460;19.034;2023-06-24T06:11:31;0.55;;;0.55;;
41799;SDS011;27468;47.460;19.034;2023-06-24T06:13:56;2.05;;;0.60;;
41799;SDS011;27468;47.460;19.034;2023-06-24T06:16:21;1.17;;;0.52;;
41799;SDS011;27468;47.460;19.034;2023-06-24T06:18:47;0.98;;;0.60;;
41799;SDS011;27468;47.460;19.034;2023-06-24T06:21:12;0.65;;;0.60;;
41799;SDS011;27468;47.460;19.034;2023-06-24T06:23:38;0.65;;;0.60;;
41799;SDS011;27468;47.460;19.034;2023-06-24T06:26:03;0.93;;;0.60;;
41799;SDS011;27468;47.460;19.034;2023-06-24T06:28:29;0.63;;;0.50;;
41799;SDS011;27468;47.460;19.034;2023-06-24T06:30:54;0.60;;;0.60;;
41799;SDS011;27468;47.460;19.034;2023-06-24T06:33:21;0.70;;;0.60;;
41799;SDS011;27468;47.460;19.034;2023-06-24T06:35:47;1.15;;;0.50;;
41799;SDS011;27468;47.460;19.034;2023-06-24T06:38:13;1.00;;;0.50;;
41799;SDS011;27468;47.460;19.034;2023-06-24T06:40:38;0.50;;;0.50;;
41799;SDS011;27468;47.460;19.034;2023-06-24T06:43:03;1.30;;;0.73;;
41799;SDS011;27468;47.460;19.034;2023-06-24T06:45:29;0.70;;;0.70;;
41799;SDS011;27468;47.460;19.034;2023-06-24T06:47:54;0.93;;;0.55;;
41799;SDS011;27468;47.460;19.034;2023-06-24T06:50:20;1.33;;;0.70;;
41799;SDS011;27468;47.460;19.034;2023-06-24T06:52:45;1.08;;;0.98;;
41799;SDS011;27468;47.460;19.034;2023-06-24T06:55:10;0.80;;;0.80;;
41799;SDS011;27468;47.460;19.034;2023-06-24T06:57:36;0.77;;;0.77;;
41799;SDS011;27468;47.460;19.034;2023-06-24T07:00:02;1.15;;;0.98;;
41799;SDS011;27468;47.460;19.034;2023-06-24T07:02:28;0.93;;;0.70;;
41799;SDS011;27468;47.460;19.034;2023-06-24T07:04:53;1.67;;;0.70;;
41799;SDS011;27468;47.460;19.034;2023-06-24T07:07:19;1.05;;;0.85;;
41799;SDS011;27468;47.460;19.034;2023-06-24T07:09:44;0.75;;;0.70;;
41799;SDS011;27468;47.460;19.034;2023-06-24T07:12:11;2.60;;;0.85;;
41799;SDS011;27468;47.460;19.034;2023-06-24T07:14:38;1.02;;;0.88;;
41799;SDS011;27468;47.460;19.034;2023-06-24T07:17:04;1.75;;;0.77;;
41799;SDS011;27468;47.460;19.034;2023-06-24T07:19:29;0.85;;;0.75;;
41799;SDS011;27468;47.460;19.034;2023-06-24T07:21:55;0.95;;;0.90;;
41799;SDS011;27468;47.460;19.034;2023-06-24T07:24:20;1.25;;;1.00;;
41799;SDS011;27468;47.460;19.034;2023-06-24T07:26:45;0.80;;;0.80;;
41799;SDS011;27468;47.460;19.034;2023-06-24T07:29:11;0.90;;;0.80;;
41799;SDS011;27468;47.460;19.034;2023-06-24T07:31:36;1.33;;;0.95;;
41799;SDS011;27468;47.460;19.034;2023-06-24T07:34:02;1.27;;;1.10;;
41799;SDS011;27468;47.460;19.034;2023-06-24T07:36:27;2.58;;;1.05;;
41799;SDS011;27468;47.460;19.034;2023-06-24T07:38:53;1.15;;;0.93;;
41799;SDS011;27468;47.460;19.034;2023-06-24T07:41:18;1.38;;;0.90;;
41799;SDS011;27468;47.460;19.034;2023-06-24T07:43:43;1.60;;;1.00;;
41799;SDS011;27468;47.460;19.034;2023-06-24T07:46:09;0.98;;;0.85;;
41799;SDS011;27468;47.460;19.034;2023-06-24T07:48:35;1.98;;;0.90;;
41799;SDS011;27468;47.460;19.034;2023-06-24T07:51:00;1.33;;;1.00;;
41799;SDS011;27468;47.460;19.034;2023-06-24T07:53:25;1.40;;;0.93;;
41799;SDS011;27468;47.460;19.034;2023-06-24T07:55:51;0.95;;;0.93;;
41799;SDS011;27468;47.460;19.034;2023-06-24T07:58:16;1.77;;;0.90;;
41799;SDS011;27468;47.460;19.034;2023-06-24T08:00:44;1.45;;;1.00;;
41799;SDS011;27468;47.460;19.034;2023-06-24T08:03:09;1.23;;;1.00;;
41799;SDS011;27468;47.460;19.034;2023-06-24T08:05:35;1.35;;;1.00;;
41799;SDS011;27468;47.460;19.034;2023-06-24T08:08:00;1.10;;;1.00;;
41799;SDS011;27468;47.460;19.034;2023-06-24T08:10:26;0.82;;;0.80;;
41799;SDS011;27468;47.460;19.034;2023-06-24T08:12:51;2.28;;;1.13;;
41799;SDS011;27468;47.460;19.034;2023-06-24T08:15:16;1.30;;;1.02;;
41799;SDS011;27468;47.460;19.034;2023-06-24T08:17:42;1.23;;;0.93;;
41799;SDS011;27468;47.460;19.034;2023-06-24T08:20:07;1.23;;;0.88;;
41799;SDS011;27468;47.460;19.034;2023-06-24T08:22:33;1.20;;;1.10;;
41799;SDS011;27468;47.460;19.034;2023-06-24T08:24:59;2.78;;;1.00;;
41799;SDS011;27468;47.460;19.034;2023-06-24T08:27:24;1.10;;;0.90;;
41799;SDS011;27468;47.460;19.034;2023-06-24T08:29:50;1.27;;;1.00;;
41799;SDS011;27468;47.460;19.034;2023-06-24T08:32:15;2.40;;;1.50;;
41799;SDS011;27468;47.460;19.034;2023-06-24T08:34:40;1.08;;;0.82;;
41799;SDS011;27468;47.460;19.034;2023-06-24T08:37:06;1.38;;;1.00;;
41799;SDS011;27468;47.460;19.034;2023-06-24T08:39:31;3.33;;;1.75;;
41799;SDS011;27468;47.460;19.034;2023-06-24T08:41:57;0.82;;;0.80;;
41799;SDS011;27468;47.460;19.034;2023-06-24T08:44:22;1.02;;;0.80;;
41799;SDS011;27468;47.460;19.034;2023-06-24T08:46:48;1.05;;;0.95;;
41799;SDS011;27468;47.460;19.034;2023-06-24T08:51:44;0.90;;;0.90;;
41799;SDS011;27468;47.460;19.034;2023-06-24T08:54:14;1.02;;;0.85;;
41799;SDS011;27468;47.460;19.034;2023-06-24T08:56:40;1.10;;;1.00;;
41799;SDS011;27468;47.460;19.034;2023-06-24T08:59:06;1.45;;;1.02;;
41799;SDS011;27468;47.460;19.034;2023-06-24T09:01:32;1.83;;;1.10;;
41799;SDS011;27468;47.460;19.034;2023-06-24T09:03:57;1.17;;;1.08;;
41799;SDS011;27468;47.460;19.034;2023-06-24T09:06:22;1.63;;;1.13;;
41799;SDS011;27468;47.460;19.034;2023-06-24T09:08:54;1.30;;;1.08;;
41799;SDS011;27468;47.460;19.034;2023-06-24T09:11:26;1.70;;;1.00;;
41799;SDS011;27468;47.460;19.034;2023-06-24T09:13:56;0.85;;;0.85;;
41799;SDS011;27468;47.460;19.034;2023-06-24T09:18:51;1.42;;;0.98;;
41799;SDS011;27468;47.460;19.034;2023-06-24T09:21:24;1.40;;;1.10;;
41799;SDS011;27468;47.460;19.034;2023-06-24T09:23:54;1.63;;;1.10;;
41799;SDS011;27468;47.460;19.034;2023-06-24T09:26:22;1.30;;;1.20;;
41799;SDS011;27468;47.460;19.034;2023-06-24T09:28:49;1.15;;;0.88;;
41799;SDS011;27468;47.460;19.034;2023-06-24T09:31:14;1.30;;;1.00;;
41799;SDS011;27468;47.460;19.034;2023-06-24T09:33:40;1.05;;;0.98;;
41799;SDS011;27468;47.460;19.034;2023-06-24T09:36:05;1.27;;;1.08;;
41799;SDS011;27468;47.460;19.034;2023-06-24T09:38:37;1.20;;;1.10;;
41799;SDS011;27468;47.460;19.034;2023-06-24T09:41:04;1.50;;;1.10;;
41799;SDS011;27468;47.460;19.034;2023-06-24T09:43:37;1.10;;;1.00;;
41799;SDS011;27468;47.460;19.034;2023-06-24T09:46:06;1.23;;;1.00;;
41799;SDS011;27468;47.460;19.034;2023-06-24T09:48:35;1.42;;;1.15;;
41799;SDS011;27468;47.460;19.034;2023-06-24T09:51:01;1.38;;;1.10;;
41799;SDS011;27468;47.460;19.034;2023-06-24T09:53:32;1.38;;;1.25;;
41799;SDS011;27468;47.460;19.034;2023-06-24T09:56:03;1.25;;;1.08;;
41799;SDS011;27468;47.460;19.034;2023-06-24T09:58:31;1.00;;;1.00;;
41799;SDS011;27468;47.460;19.034;2023-06-24T10:01:04;1.75;;;1.20;;
41799;SDS011;27468;47.460;19.034;2023-06-24T10:03:32;1.20;;;1.10;;
41799;SDS011;27468;47.460;19.034;2023-06-24T10:06:00;1.25;;;1.15;;
41799;SDS011;27468;47.460;19.034;2023-06-24T10:08:27;1.30;;;1.13;;
41799;SDS011;27468;47.460;19.034;2023-06-24T10:10:55;1.45;;;1.10;;
41799;SDS011;27468;47.460;19.034;2023-06-24T10:13:21;1.23;;;1.13;;
41799;SDS011;27468;47.460;19.034;2023-06-24T10:15:46;1.80;;;1.08;;
41799;SDS011;27468;47.460;19.034;2023-06-24T10:21:02;1.35;;;1.25;;
41799;SDS011;27468;47.460;19.034;2023-06-24T10:23:42;1.40;;;1.30;;
41799;SDS011;27468;47.460;19.034;2023-06-24T10:26:25;1.20;;;1.10;;
41799;SDS011;27468;47.460;19.034;2023-06-24T10:34:22;2.40;;;1.38;;
41799;SDS011;27468;47.460;19.034;2023-06-24T10:37:01;4.00;;;1.40;;
41799;SDS011;27468;47.460;19.034;2023-06-24T10:47:27;1.35;;;1.10;;
41799;SDS011;27468;47.460;19.034;2023-06-24T10:49:54;1.20;;;1.00;;
41799;SDS011;27468;47.460;19.034;2023-06-24T10:52:20;1.35;;;1.20;;
41799;SDS011;27468;47.460;19.034;2023-06-24T10:54:47;10.57;;;6.20;;
41799;SDS011;27468;47.460;19.034;2023-06-24T10:57:13;7.80;;;5.25;;
41799;SDS011;27468;47.460;19.034;2023-06-24T10:59:40;2.35;;;2.15;;
41799;SDS011;27468;47.460;19.034;2023-06-24T11:02:07;1.60;;;1.50;;
41799;SDS011;27468;47.460;19.034;2023-06-24T11:04:49;1.70;;;1.30;;
41799;SDS011;27468;47.460;19.034;2023-06-24T11:07:19;1.88;;;1.35;;
41799;SDS011;27468;47.460;19.034;2023-06-24T11:09:49;1.83;;;1.30;;
41799;SDS011;27468;47.460;19.034;2023-06-24T11:12:18;1.30;;;1.20;;
41799;SDS011;27468;47.460;19.034;2023-06-24T11:14:48;1.58;;;1.48;;
41799;SDS011;27468;47.460;19.034;2023-06-24T11:17:13;1.45;;;1.25;;
41799;SDS011;27468;47.460;19.034;2023-06-24T11:19:39;2.03;;;1.30;;
41799;SDS011;27468;47.460;19.034;2023-06-24T11:22:06;1.48;;;1.30;;
41799;SDS011;27468;47.460;19.034;2023-06-24T11:24:32;1.98;;;1.77;;
41799;SDS011;27468;47.460;19.034;2023-06-24T11:26:58;1.23;;;1.13;;
41799;SDS011;27468;47.460;19.034;2023-06-24T11:29:24;2.00;;;1.20;;
41799;SDS011;27468;47.460;19.034;2023-06-24T11:31:53;1.42;;;1.33;;
41799;SDS011;27468;47.460;19.034;2023-06-24T11:34:18;1.38;;;1.27;;
41799;SDS011;27468;47.460;19.034;2023-06-24T11:36:44;1.38;;;1.17;;
41799;SDS011;27468;47.460;19.034;2023-06-24T11:39:27;1.25;;;1.10;;
41799;SDS011;27468;47.460;19.034;2023-06-24T11:41:53;1.52;;;1.30;;
41799;SDS011;27468;47.460;19.034;2023-06-24T11:44:25;1.70;;;1.40;;
41799;SDS011;27468;47.460;19.034;2023-06-24T11:46:51;1.58;;;0.98;;
41799;SDS011;27468;47.460;19.034;2023-06-24T11:49:17;1.10;;;1.00;;
41799;SDS011;27468;47.460;19.034;2023-06-24T11:51:50;1.63;;;1.38;;
41799;SDS011;27468;47.460;19.034;2023-06-24T11:54:18;1.90;;;1.40;;
41799;SDS011;27468;47.460;19.034;2023-06-24T11:56:49;1.25;;;1.10;;
41799;SDS011;27468;47.460;19.034;2023-06-24T11:59:18;2.38;;;1.58;;
41799;SDS011;27468;47.460;19.034;2023-06-24T12:01:56;1.38;;;1.27;;
41799;SDS011;27468;47.460;19.034;2023-06-24T12:04:31;1.20;;;1.10;;
41799;SDS011;27468;47.460;19.034;2023-06-24T12:06:58;1.63;;;1.40;;
41799;SDS011;27468;47.460;19.034;2023-06-24T12:09:24;1.20;;;1.10;;
41799;SDS011;27468;47.460;19.034;2023-06-24T12:11:51;1.77;;;1.10;;
41799;SDS011;27468;47.460;19.034;2023-06-24T12:14:16;1.40;;;1.30;;
41799;SDS011;27468;47.460;19.034;2023-06-24T12:16:42;1.45;;;1.30;;
41799;SDS011;27468;47.460;19.034;2023-06-24T12:19:07;1.20;;;1.10;;
41799;SDS011;27468;47.460;19.034;2023-06-24T12:21:34;1.10;;;1.00;;
41799;SDS011;27468;47.460;19.034;2023-06-24T12:24:00;1.15;;;1.02;;
41799;SDS011;27468;47.460;19.034;2023-06-24T12:26:26;1.33;;;1.00;;
41799;SDS011;27468;47.460;19.034;2023-06-24T12:28:53;1.38;;;0.98;;
41799;SDS011;27468;47.460;19.034;2023-06-24T12:31:21;1.27;;;1.15;;
41799;SDS011;27468;47.460;19.034;2023-06-24T12:33:46;1.42;;;1.25;;
41799;SDS011;27468;47.460;19.034;2023-06-24T12:36:11;1.75;;;1.15;;
41799;SDS011;27468;47.460;19.034;2023-06-24T12:38:37;1.20;;;1.10;;
41799;SDS011;27468;47.460;19.034;2023-06-24T12:41:02;1.23;;;1.13;;
41799;SDS011;27468;47.460;19.034;2023-06-24T12:43:28;2.03;;;1.42;;
41799;SDS011;27468;47.460;19.034;2023-06-24T12:45:54;1.40;;;1.20;;
41799;SDS011;27468;47.460;19.034;2023-06-24T12:48:20;1.30;;;1.20;;
41799;SDS011;27468;47.460;19.034;2023-06-24T12:50:46;1.13;;;1.02;;
41799;SDS011;27468;47.460;19.034;2023-06-24T12:53:12;1.10;;;1.02;;
41799;SDS011;27468;47.460;19.034;2023-06-24T12:55:39;1.88;;;1.20;;
41799;SDS011;27468;47.460;19.034;2023-06-24T12:58:05;1.70;;;1.20;;
41799;SDS011;27468;47.460;19.034;2023-06-24T13:00:30;1.25;;;1.08;;
41799;SDS011;27468;47.460;19.034;2023-06-24T13:02:55;1.75;;;1.40;;
41799;SDS011;27468;47.460;19.034;2023-06-24T13:05:21;1.55;;;1.33;;
41799;SDS011;27468;47.460;19.034;2023-06-24T13:07:47;1.60;;;1.40;;
41799;SDS011;27468;47.460;19.034;2023-06-24T13:10:12;1.60;;;1.30;;
41799;SDS011;27468;47.460;19.034;2023-06-24T13:12:38;1.60;;;1.50;;
41799;SDS011;27468;47.460;19.034;2023-06-24T13:15:04;2.03;;;1.50;;
41799;SDS011;27468;47.460;19.034;2023-06-24T13:17:31;2.05;;;1.38;;
41799;SDS011;27468;47.460;19.034;2023-06-24T13:19:56;1.70;;;1.10;;
41799;SDS011;27468;47.460;19.034;2023-06-24T13:22:22;1.40;;;1.17;;
41799;SDS011;27468;47.460;19.034;2023-06-24T13:24:48;1.60;;;1.30;;
41799;SDS011;27468;47.460;19.034;2023-06-24T13:27:13;1.40;;;1.30;;
41799;SDS011;27468;47.460;19.034;2023-06-24T13:29:39;1.48;;;1.35;;
41799;SDS011;27468;47.460;19.034;2023-06-24T13:32:04;1.80;;;1.42;;
41799;SDS011;27468;47.460;19.034;2023-06-24T13:34:30;1.40;;;1.30;;
41799;SDS011;27468;47.460;19.034;2023-06-24T13:36:55;1.50;;;1.40;;
41799;SDS011;27468;47.460;19.034;2023-06-24T13:39:21;1.33;;;1.23;;
41799;SDS011;27468;47.460;19.034;2023-06-24T13:41:49;1.80;;;1.60;;
41799;SDS011;27468;47.460;19.034;2023-06-24T13:44:15;2.08;;;1.70;;
41799;SDS011;27468;47.460;19.034;2023-06-24T13:46:41;2.13;;;1.50;;
41799;SDS011;27468;47.460;19.034;2023-06-24T13:49:06;1.77;;;1.60;;
41799;SDS011;27468;47.460;19.034;2023-06-24T13:51:32;1.60;;;1.50;;
41799;SDS011;27468;47.460;19.034;2023-06-24T13:53:57;1.75;;;1.65;;
41799;SDS011;27468;47.460;19.034;2023-06-24T13:56:23;2.10;;;1.77;;
41799;SDS011;27468;47.460;19.034;2023-06-24T13:58:50;2.45;;;2.00;;
41799;SDS011;27468;47.460;19.034;2023-06-24T14:01:15;2.20;;;2.00;;
41799;SDS011;27468;47.460;19.034;2023-06-24T14:03:42;1.88;;;1.70;;
41799;SDS011;27468;47.460;19.034;2023-06-24T14:06:07;2.40;;;2.20;;
41799;SDS011;27468;47.460;19.034;2023-06-24T14:08:33;2.55;;;2.30;;
41799;SDS011;27468;47.460;19.034;2023-06-24T14:10:59;2.60;;;2.20;;
41799;SDS011;27468;47.460;19.034;2023-06-24T14:13:26;2.30;;;2.10;;
41799;SDS011;27468;47.460;19.034;2023-06-24T14:15:53;2.10;;;1.90;;
41799;SDS011;27468;47.460;19.034;2023-06-24T14:18:19;2.63;;;2.40;;
41799;SDS011;27468;47.460;19.034;2023-06-24T14:20:45;2.80;;;2.17;;
41799;SDS011;27468;47.460;19.034;2023-06-24T14:23:10;2.42;;;2.22;;
41799;SDS011;27468;47.460;19.034;2023-06-24T14:25:36;3.00;;;2.80;;
41799;SDS011;27468;47.460;19.034;2023-06-24T14:28:05;2.90;;;2.70;;
41799;SDS011;27468;47.460;19.034;2023-06-24T14:30:31;2.75;;;2.55;;
41799;SDS011;27468;47.460;19.034;2023-06-24T14:32:57;2.88;;;2.22;;
41799;SDS011;27468;47.460;19.034;2023-06-24T14:35:22;2.50;;;2.30;;
41799;SDS011;27468;47.460;19.034;2023-06-24T14:37:48;3.10;;;2.80;;
41799;SDS011;27468;47.460;19.034;2023-06-24T14:40:13;3.78;;;2.65;;
41799;SDS011;27468;47.460;19.034;2023-06-24T14:42:39;3.35;;;2.70;;
41799;SDS011;27468;47.460;19.034;2023-06-24T14:45:04;2.83;;;2.63;;
41799;SDS011;27468;47.460;19.034;2023-06-24T14:47:30;2.65;;;2.45;;
41799;SDS011;27468;47.460;19.034;2023-06-24T14:49:56;2.47;;;2.28;;
41799;SDS011;27468;47.460;19.034;2023-06-24T14:52:21;2.60;;;2.40;;
41799;SDS011;27468;47.460;19.034;2023-06-24T14:54:47;3.00;;;2.72;;
41799;SDS011;27468;47.460;19.034;2023-06-24T14:57:12;3.00;;;2.70;;
41799;SDS011;27468;47.460;19.034;2023-06-24T14:59:38;3.20;;;2.47;;
41799;SDS011;27468;47.460;19.034;2023-06-24T15:02:03;3.97;;;2.83;;